Montrose, West Virginia
Current Conditions -  °F | °C
As of 12:18 AM on Sunday 26 Oct 2014 (Local Time) from KEKN Reporting Station
Broken Clouds Broken Clouds  
Wind Chill: 59°   Ceiling: 2800
Heat Index: 59°   Visibility: 10mi
Dew Point: 53°   Wind: 18mph
Humidity: 81%   Direction: 280°W
Pressure: 29.87"   Gusts: 26mph
Location:  39.07°N, 79.81°W
Report Text: KEKN 260418Z AUTO 28016G23KT 10SM SCT023 BKN028 BKN034 15/12 A2987 RMK AO2 PK WND 29032/0405 T01500117 TSNO
Loading
Personal Weather Stations






























Interactive Weather Map
Tropical Storm Tracking
New forecast layout! Learn more

10-Day Weather Forecast

Advertisements
Track Severe Weather on mobile